Terminal Aerodrome Forecast
Issued by NWS Louisville, KY

Home | Current Version | Previous Version | Text Only | Print | Product List | Glossary On
Versions: 1 2 3 4 5 6 7 8 9 10 11 12 13
715
FTUS43 KLMK 131121
TAFBWG
TAF
KBWG 131121Z 1312/1412 21006KT P6SM SKC
     FM131500 20014G24KT P6SM FEW250
     FM131700 21016G32KT P6SM FEW250
     FM140400 27010KT P6SM FEW080 BKN250
     FM140800 30006KT P6SM BKN080=

USA.gov is the U.S. government's official web portal to all federal, state and local government web resources and services.